createdAt,value
2023-09-05T00:03:39.120Z,101481.45
2023-09-05T00:06:46.005Z,101482.97
2023-09-05T00:10:14.723Z,101488.05
2023-09-05T00:14:26.359Z,101486.63
2023-09-05T00:18:15.638Z,101488.50
2023-09-05T00:25:36.177Z,101488.98
2023-09-05T00:29:01.047Z,101493.58
2023-09-05T00:37:21.440Z,101499.00
2023-09-05T00:40:29.479Z,101498.32
2023-09-05T00:45:27.702Z,101496.63
2023-09-05T00:49:11.576Z,101495.80
2023-09-05T00:52:32.950Z,101490.33
2023-09-05T00:55:40.282Z,101491.45
2023-09-05T00:59:15.874Z,101489.91
2023-09-05T01:03:13.150Z,101489.02
2023-09-05T01:07:28.272Z,101480.11
2023-09-05T01:13:33.237Z,101478.46
2023-09-05T01:17:08.417Z,101479.06
2023-09-05T01:21:07.899Z,101474.95
2023-09-05T01:24:24.514Z,101477.87
2023-09-05T01:28:14.179Z,101477.52
2023-09-05T01:35:09.150Z,101473.98
2023-09-05T01:42:38.877Z,101477.70
2023-09-05T01:46:21.253Z,101487.75
2023-09-05T01:50:47.628Z,101490.38
2023-09-05T01:53:49.452Z,101485.94
2023-09-05T01:57:41.587Z,101486.73
2023-09-05T02:01:42.833Z,101477.86
2023-09-05T02:05:17.580Z,101478.23
2023-09-05T02:09:19.552Z,101475.27
2023-09-05T02:12:50.552Z,101477.16
2023-09-05T02:19:42.883Z,101474.66
2023-09-05T02:22:11.065Z,101474.56
2023-09-05T02:25:26.322Z,101473.34
2023-09-05T02:28:24.925Z,101473.44
2023-09-05T02:31:18.592Z,101475.85
2023-09-05T02:35:52.902Z,101463.13
2023-09-05T02:39:17.104Z,101458.99
2023-09-05T02:41:47.612Z,101463.11
2023-09-05T02:44:15.874Z,101464.35
2023-09-05T02:46:50.476Z,101461.60
2023-09-05T02:49:20.706Z,101463.08
2023-09-05T02:54:45.554Z,101470.34
2023-09-05T02:58:30.114Z,101464.86
2023-09-05T03:02:08.394Z,101469.77
2023-09-05T03:05:23.632Z,101473.80
2023-09-05T03:08:38.323Z,101474.72
2023-09-05T03:12:25.236Z,101476.30
2023-09-05T03:16:18.646Z,101470.61
2023-09-05T03:29:52.783Z,101473.19
2023-09-05T03:32:24.063Z,101474.55
2023-09-05T03:34:53.172Z,101475.31
2023-09-05T03:37:21.986Z,101483.38
2023-09-05T03:39:51.854Z,101481.84
2023-09-05T03:42:23.276Z,101481.73
2023-09-05T03:44:55.087Z,101484.41
2023-09-05T03:50:56.569Z,101485.52
2023-09-05T03:53:25.437Z,101494.38
2023-09-05T03:55:54.325Z,101498.09
2023-09-05T03:58:24.876Z,101496.08
2023-09-05T04:00:57.498Z,101499.11
2023-09-05T04:03:27.190Z,101501.01
2023-09-05T04:06:01.504Z,101497.84
2023-09-05T04:08:29.674Z,101497.23
2023-09-05T04:14:41.152Z,101497.11
2023-09-05T04:17:13.298Z,101498.85
2023-09-05T04:19:41.412Z,101501.89
2023-09-05T04:22:09.435Z,101503.17
2023-09-05T04:24:38.783Z,101506.02
2023-09-05T04:30:18.795Z,101510.20
2023-09-05T04:32:49.977Z,101513.41
2023-09-05T04:36:04.037Z,101513.55
2023-09-05T04:38:32.281Z,101510.63
2023-09-05T04:41:05.810Z,101507.83
2023-09-05T05:39:23.202Z,101501.89
2023-09-05T05:41:51.377Z,101506.49
2023-09-05T05:44:19.650Z,101509.33
2023-09-05T05:46:49.300Z,101505.06
2023-09-05T05:49:17.695Z,101504.40
2023-09-05T05:52:44.395Z,101505.67
2023-09-05T05:55:12.744Z,101511.20
2023-09-05T05:57:40.833Z,101516.43
2023-09-05T06:00:09.636Z,101515.77
2023-09-05T06:02:37.542Z,101516.78
2023-09-05T06:05:07.489Z,101513.29
2023-09-05T06:07:35.489Z,101517.27
2023-09-05T06:10:03.546Z,101516.11
2023-09-05T06:12:36.864Z,101517.34
2023-09-05T06:15:05.230Z,101513.96
2023-09-05T06:17:41.962Z,101509.34
2023-09-05T06:20:15.573Z,101510.52
2023-09-05T06:22:45.958Z,101519.08
2023-09-05T06:25:14.847Z,101520.35
2023-09-05T06:27:44.589Z,101521.14
2023-09-05T06:30:15.100Z,101519.08
2023-09-05T06:32:44.492Z,101519.48
2023-09-05T06:35:12.680Z,101517.34
2023-09-05T06:37:43.521Z,101514.67
2023-09-05T06:40:21.363Z,101511.67
2023-09-05T06:43:22.005Z,101509.81
2023-09-05T06:45:54.723Z,101509.39
2023-09-05T06:48:22.981Z,101504.34
2023-09-05T06:50:56.753Z,101502.83
2023-09-05T06:53:24.897Z,101500.79
2023-09-05T06:55:53.305Z,101503.73
2023-09-05T06:58:25.064Z,101506.84
2023-09-05T07:00:57.658Z,101509.61
2023-09-05T07:03:27.041Z,101507.77
2023-09-05T07:06:05.680Z,101508.73
2023-09-05T07:08:37.958Z,101508.69
2023-09-05T07:11:10.507Z,101507.16
2023-09-05T07:13:38.767Z,101510.86
2023-09-05T07:16:13.747Z,101507.95
2023-09-05T07:18:46.044Z,101511.88
2023-09-05T07:21:20.059Z,101511.73
2023-09-05T07:23:50.703Z,101517.23
2023-09-05T07:26:22.887Z,101524.23
2023-09-05T07:28:54.537Z,101526.58
2023-09-05T07:31:42.163Z,101525.20
2023-09-05T07:34:13.705Z,101526.58
2023-09-05T07:36:49.026Z,101523.34
2023-09-05T07:39:43.608Z,101528.15
2023-09-05T07:42:33.855Z,101534.73
2023-09-05T07:45:26.439Z,101531.71
2023-09-05T07:47:57.425Z,101535.06
2023-09-05T07:53:27.284Z,101532.92
2023-09-05T07:56:18.746Z,101538.15
2023-09-05T07:59:20.718Z,101539.42
2023-09-05T08:02:35.103Z,101545.86
2023-09-05T08:09:09.514Z,101540.19
2023-09-05T08:12:28.477Z,101544.79
2023-09-05T08:15:27.699Z,101549.06
2023-09-05T08:23:13.783Z,101546.98
2023-09-05T08:26:05.983Z,101550.34
2023-09-05T08:28:34.874Z,101543.62
2023-09-05T08:31:23.061Z,101544.45
2023-09-05T08:33:52.214Z,101545.16
2023-09-05T08:36:20.354Z,101547.70
2023-09-05T08:38:48.457Z,101547.73
2023-09-05T08:41:35.942Z,101547.71
2023-09-05T08:44:06.828Z,101547.20
2023-09-05T08:46:44.360Z,101546.44
2023-09-05T08:49:12.609Z,101547.23
2023-09-05T08:51:45.956Z,101547.63
2023-09-05T08:54:18.073Z,101545.13
2023-09-05T08:56:46.205Z,101545.61
2023-09-05T08:59:17.139Z,101546.36
2023-09-05T09:01:45.565Z,101542.97
2023-09-05T09:04:15.700Z,101544.00
2023-09-05T09:06:47.967Z,101547.30
2023-09-05T09:09:37.098Z,101547.73
2023-09-05T09:12:14.701Z,101540.83
2023-09-05T09:14:45.176Z,101540.98
2023-09-05T09:17:13.733Z,101545.59
2023-09-05T09:19:41.992Z,101544.62
2023-09-05T09:22:10.844Z,101545.70
2023-09-05T09:24:40.644Z,101549.81
2023-09-05T09:27:30.796Z,101552.30
2023-09-05T09:30:19.918Z,101552.00
2023-09-05T09:36:40.074Z,101548.38
2023-09-05T09:39:14.434Z,101553.33
2023-09-05T09:41:49.457Z,101548.02
2023-09-05T09:44:35.381Z,101541.29
2023-09-05T09:47:07.833Z,101543.92
2023-09-05T09:49:46.831Z,101536.73
2023-09-05T09:52:17.581Z,101535.02
2023-09-05T09:55:09.332Z,101533.19
2023-09-05T09:57:57.431Z,101534.02
2023-09-05T10:00:52.259Z,101534.98
2023-09-05T10:03:42.419Z,101533.23
2023-09-05T10:06:32.582Z,101525.80
2023-09-05T10:09:03.712Z,101527.73
2023-09-05T10:11:35.537Z,101526.13
2023-09-05T10:14:07.721Z,101517.14
2023-09-05T10:16:58.476Z,101513.63
2023-09-05T10:20:07.468Z,101511.21
2023-09-05T10:22:55.218Z,101506.60
2023-09-05T10:32:41.123Z,101505.00
2023-09-05T10:35:10.400Z,101502.95
2023-09-05T10:38:20.771Z,101501.23
2023-09-05T10:40:51.737Z,101499.21
2023-09-05T10:44:12.127Z,101498.30
2023-09-05T10:46:41.662Z,101492.45
2023-09-05T10:49:17.334Z,101496.24
2023-09-05T10:52:22.796Z,101493.90
2023-09-05T10:54:53.335Z,101494.14
2023-09-05T10:57:52.153Z,101493.05
2023-09-05T11:00:22.418Z,101487.94
2023-09-05T11:02:55.034Z,101490.15
2023-09-05T11:08:30.869Z,101480.59
2023-09-05T11:11:24.219Z,101478.76
2023-09-05T11:13:55.159Z,101473.41
2023-09-05T11:16:48.332Z,101468.76
2023-09-05T11:19:54.737Z,101459.71
2023-09-05T11:22:35.325Z,101459.81
2023-09-05T11:28:53.996Z,101451.96
2023-09-05T11:31:23.597Z,101451.55
2023-09-05T11:34:36.044Z,101444.99
2023-09-05T11:37:05.389Z,101444.45
2023-09-05T11:39:36.885Z,101447.45
2023-09-05T11:45:23.357Z,101438.23
2023-09-05T11:48:16.442Z,101434.23
2023-09-05T11:51:25.198Z,101433.20
2023-09-05T11:53:54.579Z,101423.89
2023-09-05T11:56:28.579Z,101422.81
2023-09-05T11:59:33.554Z,101420.13
2023-09-05T12:02:47.486Z,101419.67
2023-09-05T12:06:13.408Z,101418.59
2023-09-05T12:15:42.227Z,101403.00
2023-09-05T12:18:48.725Z,101403.98
2023-09-05T12:22:06.533Z,101401.05
2023-09-05T12:25:42.779Z,101396.55
2023-09-05T12:32:44.420Z,101391.65
2023-09-05T12:35:18.321Z,101390.98
2023-09-05T12:41:29.297Z,101385.77
2023-09-05T12:44:55.804Z,101388.36
2023-09-05T12:55:18.719Z,101360.92
2023-09-05T12:58:53.757Z,101351.73
2023-09-05T13:01:56.499Z,101350.81
2023-09-05T13:04:31.517Z,101344.35
2023-09-05T13:07:02.365Z,101342.42
2023-09-05T13:09:55.928Z,101344.43
2023-09-05T13:15:50.708Z,101342.82
2023-09-05T13:19:10.552Z,101339.99
2023-09-05T13:21:40.486Z,101340.19
2023-09-05T13:24:55.171Z,101338.85
2023-09-05T13:27:31.271Z,101338.08
2023-09-05T13:36:59.005Z,101327.00
2023-09-05T13:45:57.527Z,101301.67
2023-09-05T13:49:03.641Z,101301.56
2023-09-05T13:52:16.156Z,101295.89
2023-09-05T13:55:25.746Z,101295.86
2023-09-05T13:58:56.654Z,101298.54
2023-09-05T14:02:02.052Z,101294.24
2023-09-05T14:10:45.605Z,101284.71
2023-09-05T14:17:48.387Z,101275.84
2023-09-05T14:25:40.322Z,101275.27
2023-09-05T14:28:31.087Z,101267.15
2023-09-05T14:43:13.325Z,101251.41
2023-09-05T14:46:14.955Z,101251.80
2023-09-05T14:53:24.514Z,101243.38
2023-09-05T14:56:54.829Z,101237.17
2023-09-05T15:00:34.714Z,101236.55
2023-09-05T15:03:08.238Z,101238.67
2023-09-05T15:05:59.325Z,101239.53
2023-09-05T15:09:01.501Z,101241.89
2023-09-05T15:12:29.341Z,101238.66
2023-09-05T15:16:10.741Z,101239.08
2023-09-05T15:19:35.887Z,101234.85
2023-09-05T15:22:23.939Z,101228.09
2023-09-05T15:25:16.684Z,101223.00
2023-09-05T15:31:26.138Z,101219.98
2023-09-05T15:34:28.320Z,101215.60
2023-09-05T15:37:35.366Z,101213.15
2023-09-05T15:40:27.952Z,101212.45
2023-09-05T15:46:33.653Z,101204.83
2023-09-05T15:54:41.483Z,101205.14
2023-09-05T15:58:49.393Z,101204.89
2023-09-05T16:02:14.716Z,101202.38
2023-09-05T16:06:01.964Z,101194.78
2023-09-05T16:09:46.074Z,101193.70
2023-09-05T16:13:20.303Z,101187.13
2023-09-05T16:16:29.690Z,101178.23
2023-09-05T16:19:58.583Z,101170.27
2023-09-05T16:24:11.751Z,101173.71
2023-09-05T16:27:30.427Z,101173.55
2023-09-05T16:30:21.717Z,101171.08
2023-09-05T16:33:48.038Z,101168.52
2023-09-05T16:37:39.191Z,101162.31
2023-09-05T16:41:58.759Z,101161.23
2023-09-05T16:45:08.507Z,101158.13
2023-09-05T16:56:37.337Z,101155.00
2023-09-05T17:13:51.478Z,101153.91
2023-09-05T17:27:54.035Z,101152.14
2023-09-05T17:31:49.616Z,101159.89
2023-09-05T17:39:43.473Z,101168.77
2023-09-05T17:44:48.920Z,101164.61
2023-09-05T17:48:45.294Z,101162.98
2023-09-05T17:56:24.454Z,101169.11
2023-09-05T18:00:19.244Z,101166.02
2023-09-05T18:17:49.438Z,101175.38
2023-09-05T18:29:57.836Z,101180.13
2023-09-05T18:44:27.829Z,101170.59
2023-09-05T19:02:17.704Z,101160.45
2023-09-05T19:21:13.031Z,101157.54
2023-09-05T19:23:59.054Z,101150.41
2023-09-05T19:27:45.793Z,101149.98
2023-09-05T19:31:19.203Z,101150.98
2023-09-05T19:35:00.368Z,101151.60
2023-09-05T19:38:46.511Z,101152.50
2023-09-05T19:42:29.069Z,101151.26
2023-09-05T19:46:50.636Z,101154.69
2023-09-05T19:50:53.879Z,101150.50
